sensor_id;sensor_type;location;lat;lon;timestamp;P1;durP1;ratioP1;P2;durP2;ratioP2
42140;SDS011;27809;51.864;5.646;2023-03-13T00:01:19;15.88;;;2.45;;
42140;SDS011;27809;51.864;5.646;2023-03-13T00:03:45;18.27;;;2.25;;
42140;SDS011;27809;51.864;5.646;2023-03-13T00:06:11;19.63;;;3.80;;
42140;SDS011;27809;51.864;5.646;2023-03-13T00:08:37;22.23;;;3.75;;
42140;SDS011;27809;51.864;5.646;2023-03-13T00:11:04;12.02;;;2.45;;
42140;SDS011;27809;51.864;5.646;2023-03-13T00:13:30;23.63;;;2.97;;
42140;SDS011;27809;51.864;5.646;2023-03-13T00:16:03;16.58;;;1.88;;
42140;SDS011;27809;51.864;5.646;2023-03-13T00:18:30;26.33;;;4.57;;
42140;SDS011;27809;51.864;5.646;2023-03-13T00:20:59;7.97;;;1.65;;
42140;SDS011;27809;51.864;5.646;2023-03-13T00:23:29;20.23;;;2.85;;
42140;SDS011;27809;51.864;5.646;2023-03-13T00:25:57;20.83;;;2.42;;
42140;SDS011;27809;51.864;5.646;2023-03-13T00:28:23;18.05;;;2.78;;
42140;SDS011;27809;51.864;5.646;2023-03-13T00:30:49;19.83;;;3.17;;
42140;SDS011;27809;51.864;5.646;2023-03-13T00:33:14;14.48;;;2.22;;
42140;SDS011;27809;51.864;5.646;2023-03-13T00:35:40;21.98;;;4.28;;
42140;SDS011;27809;51.864;5.646;2023-03-13T00:38:05;7.55;;;2.08;;
42140;SDS011;27809;51.864;5.646;2023-03-13T00:40:31;17.00;;;2.47;;
42140;SDS011;27809;51.864;5.646;2023-03-13T00:42:56;23.65;;;3.30;;
42140;SDS011;27809;51.864;5.646;2023-03-13T00:45:22;13.82;;;1.70;;
42140;SDS011;27809;51.864;5.646;2023-03-13T00:47:48;20.88;;;2.88;;
42140;SDS011;27809;51.864;5.646;2023-03-13T00:50:14;11.13;;;3.95;;
42140;SDS011;27809;51.864;5.646;2023-03-13T00:52:39;24.15;;;3.17;;
42140;SDS011;27809;51.864;5.646;2023-03-13T00:55:05;20.65;;;2.97;;
42140;SDS011;27809;51.864;5.646;2023-03-13T00:57:31;20.80;;;4.25;;
42140;SDS011;27809;51.864;5.646;2023-03-13T01:00:01;15.57;;;2.60;;
42140;SDS011;27809;51.864;5.646;2023-03-13T01:02:29;16.38;;;2.58;;
42140;SDS011;27809;51.864;5.646;2023-03-13T01:04:55;17.15;;;2.83;;
42140;SDS011;27809;51.864;5.646;2023-03-13T01:07:20;14.90;;;2.85;;
42140;SDS011;27809;51.864;5.646;2023-03-13T01:09:46;25.10;;;3.30;;
42140;SDS011;27809;51.864;5.646;2023-03-13T01:12:11;12.13;;;1.70;;
42140;SDS011;27809;51.864;5.646;2023-03-13T01:14:37;11.70;;;1.88;;
42140;SDS011;27809;51.864;5.646;2023-03-13T01:17:03;19.38;;;3.40;;
42140;SDS011;27809;51.864;5.646;2023-03-13T01:19:28;20.35;;;3.03;;
42140;SDS011;27809;51.864;5.646;2023-03-13T01:21:54;19.67;;;2.88;;
42140;SDS011;27809;51.864;5.646;2023-03-13T01:24:20;19.05;;;3.15;;
42140;SDS011;27809;51.864;5.646;2023-03-13T01:26:46;20.73;;;3.20;;
42140;SDS011;27809;51.864;5.646;2023-03-13T01:29:12;14.32;;;3.00;;
42140;SDS011;27809;51.864;5.646;2023-03-13T01:31:38;15.07;;;2.67;;
42140;SDS011;27809;51.864;5.646;2023-03-13T01:34:03;14.82;;;3.85;;
42140;SDS011;27809;51.864;5.646;2023-03-13T01:36:30;20.63;;;3.85;;
42140;SDS011;27809;51.864;5.646;2023-03-13T01:38:58;12.43;;;2.15;;
42140;SDS011;27809;51.864;5.646;2023-03-13T01:41:25;13.85;;;2.72;;
42140;SDS011;27809;51.864;5.646;2023-03-13T01:43:52;18.70;;;2.60;;
42140;SDS011;27809;51.864;5.646;2023-03-13T01:46:20;10.43;;;1.40;;
42140;SDS011;27809;51.864;5.646;2023-03-13T01:49:04;11.68;;;2.28;;
42140;SDS011;27809;51.864;5.646;2023-03-13T01:51:46;11.65;;;2.10;;
42140;SDS011;27809;51.864;5.646;2023-03-13T01:57:15;7.45;;;1.58;;
42140;SDS011;27809;51.864;5.646;2023-03-13T01:59:46;15.65;;;1.85;;
42140;SDS011;27809;51.864;5.646;2023-03-13T02:02:15;9.52;;;2.00;;
42140;SDS011;27809;51.864;5.646;2023-03-13T02:04:44;7.35;;;2.45;;
42140;SDS011;27809;51.864;5.646;2023-03-13T02:07:15;10.93;;;2.78;;
42140;SDS011;27809;51.864;5.646;2023-03-13T02:09:44;12.48;;;2.15;;
42140;SDS011;27809;51.864;5.646;2023-03-13T02:12:16;25.30;;;3.17;;
42140;SDS011;27809;51.864;5.646;2023-03-13T02:14:48;11.73;;;2.88;;
42140;SDS011;27809;51.864;5.646;2023-03-13T02:17:15;11.13;;;2.38;;
42140;SDS011;27809;51.864;5.646;2023-03-13T02:19:45;5.43;;;1.88;;
42140;SDS011;27809;51.864;5.646;2023-03-13T02:27:26;11.15;;;2.65;;
42140;SDS011;27809;51.864;5.646;2023-03-13T02:29:52;9.10;;;1.75;;
42140;SDS011;27809;51.864;5.646;2023-03-13T02:32:18;5.82;;;1.65;;
42140;SDS011;27809;51.864;5.646;2023-03-13T02:34:44;16.77;;;2.25;;
42140;SDS011;27809;51.864;5.646;2023-03-13T02:37:12;4.20;;;2.58;;
42140;SDS011;27809;51.864;5.646;2023-03-13T02:39:40;6.72;;;2.15;;
42140;SDS011;27809;51.864;5.646;2023-03-13T02:42:09;3.38;;;1.10;;
42140;SDS011;27809;51.864;5.646;2023-03-13T02:44:40;12.30;;;2.10;;
42140;SDS011;27809;51.864;5.646;2023-03-13T02:47:06;10.30;;;3.30;;
42140;SDS011;27809;51.864;5.646;2023-03-13T02:49:35;12.85;;;2.30;;
42140;SDS011;27809;51.864;5.646;2023-03-13T02:52:34;15.27;;;3.42;;
42140;SDS011;27809;51.864;5.646;2023-03-13T02:55:10;8.90;;;1.75;;
42140;SDS011;27809;51.864;5.646;2023-03-13T02:57:41;4.72;;;1.50;;
42140;SDS011;27809;51.864;5.646;2023-03-13T03:00:07;5.35;;;1.98;;
42140;SDS011;27809;51.864;5.646;2023-03-13T03:02:36;9.25;;;2.00;;
42140;SDS011;27809;51.864;5.646;2023-03-13T03:05:02;6.30;;;2.10;;
42140;SDS011;27809;51.864;5.646;2023-03-13T03:07:28;6.35;;;1.92;;
42140;SDS011;27809;51.864;5.646;2023-03-13T03:09:54;4.97;;;1.88;;
42140;SDS011;27809;51.864;5.646;2023-03-13T03:12:19;7.40;;;1.90;;
42140;SDS011;27809;51.864;5.646;2023-03-13T03:14:45;6.70;;;2.90;;
42140;SDS011;27809;51.864;5.646;2023-03-13T03:17:11;9.65;;;3.15;;
42140;SDS011;27809;51.864;5.646;2023-03-13T03:19:36;11.55;;;2.67;;
42140;SDS011;27809;51.864;5.646;2023-03-13T03:22:02;6.75;;;2.15;;
42140;SDS011;27809;51.864;5.646;2023-03-13T03:24:27;7.75;;;2.95;;
42140;SDS011;27809;51.864;5.646;2023-03-13T03:26:53;8.00;;;2.25;;
42140;SDS011;27809;51.864;5.646;2023-03-13T03:29:18;3.40;;;1.77;;
42140;SDS011;27809;51.864;5.646;2023-03-13T03:31:44;8.40;;;3.22;;
42140;SDS011;27809;51.864;5.646;2023-03-13T03:34:10;8.88;;;2.58;;
42140;SDS011;27809;51.864;5.646;2023-03-13T03:36:35;6.38;;;2.47;;
42140;SDS011;27809;51.864;5.646;2023-03-13T03:39:01;6.20;;;2.55;;
42140;SDS011;27809;51.864;5.646;2023-03-13T03:41:26;17.13;;;3.67;;
42140;SDS011;27809;51.864;5.646;2023-03-13T03:43:52;8.15;;;3.15;;
42140;SDS011;27809;51.864;5.646;2023-03-13T03:46:17;5.65;;;2.92;;
42140;SDS011;27809;51.864;5.646;2023-03-13T03:48:43;4.93;;;2.28;;
42140;SDS011;27809;51.864;5.646;2023-03-13T03:51:08;7.28;;;2.00;;
42140;SDS011;27809;51.864;5.646;2023-03-13T03:53:35;5.03;;;2.45;;
42140;SDS011;27809;51.864;5.646;2023-03-13T03:56:01;5.05;;;2.65;;
42140;SDS011;27809;51.864;5.646;2023-03-13T03:58:27;6.53;;;2.97;;
42140;SDS011;27809;51.864;5.646;2023-03-13T04:00:52;6.45;;;2.95;;
42140;SDS011;27809;51.864;5.646;2023-03-13T04:03:21;9.95;;;2.78;;
42140;SDS011;27809;51.864;5.646;2023-03-13T04:05:46;5.72;;;1.88;;
42140;SDS011;27809;51.864;5.646;2023-03-13T04:08:12;6.03;;;2.35;;
42140;SDS011;27809;51.864;5.646;2023-03-13T04:10:38;5.35;;;3.25;;
42140;SDS011;27809;51.864;5.646;2023-03-13T04:13:04;7.30;;;3.25;;
42140;SDS011;27809;51.864;5.646;2023-03-13T04:15:29;5.32;;;2.55;;
42140;SDS011;27809;51.864;5.646;2023-03-13T04:17:55;8.65;;;3.33;;
42140;SDS011;27809;51.864;5.646;2023-03-13T04:20:21;5.85;;;3.08;;
42140;SDS011;27809;51.864;5.646;2023-03-13T04:22:46;7.10;;;3.40;;
42140;SDS011;27809;51.864;5.646;2023-03-13T04:25:12;5.28;;;2.47;;
42140;SDS011;27809;51.864;5.646;2023-03-13T04:27:37;6.53;;;2.83;;
42140;SDS011;27809;51.864;5.646;2023-03-13T04:30:03;11.82;;;3.95;;
42140;SDS011;27809;51.864;5.646;2023-03-13T04:32:29;5.50;;;2.80;;
42140;SDS011;27809;51.864;5.646;2023-03-13T04:34:54;16.20;;;4.78;;
42140;SDS011;27809;51.864;5.646;2023-03-13T04:37:20;5.43;;;3.53;;
42140;SDS011;27809;51.864;5.646;2023-03-13T04:39:45;6.35;;;3.63;;
42140;SDS011;27809;51.864;5.646;2023-03-13T04:42:11;3.95;;;2.97;;
42140;SDS011;27809;51.864;5.646;2023-03-13T04:44:37;7.03;;;2.95;;
42140;SDS011;27809;51.864;5.646;2023-03-13T04:47:03;10.68;;;3.72;;
42140;SDS011;27809;51.864;5.646;2023-03-13T04:49:29;6.75;;;3.50;;
42140;SDS011;27809;51.864;5.646;2023-03-13T04:51:55;4.35;;;2.80;;
42140;SDS011;27809;51.864;5.646;2023-03-13T04:54:21;5.78;;;3.33;;
42140;SDS011;27809;51.864;5.646;2023-03-13T04:56:46;10.38;;;3.22;;
42140;SDS011;27809;51.864;5.646;2023-03-13T04:59:13;13.98;;;3.97;;
42140;SDS011;27809;51.864;5.646;2023-03-13T05:01:39;6.50;;;3.33;;
42140;SDS011;27809;51.864;5.646;2023-03-13T05:04:05;7.72;;;4.03;;
42140;SDS011;27809;51.864;5.646;2023-03-13T05:06:31;9.20;;;3.53;;
42140;SDS011;27809;51.864;5.646;2023-03-13T05:08:56;7.88;;;2.85;;
42140;SDS011;27809;51.864;5.646;2023-03-13T05:11:22;4.20;;;2.00;;
42140;SDS011;27809;51.864;5.646;2023-03-13T05:13:48;7.40;;;1.65;;
42140;SDS011;27809;51.864;5.646;2023-03-13T05:16:13;6.85;;;2.60;;
42140;SDS011;27809;51.864;5.646;2023-03-13T05:18:39;6.38;;;2.60;;
42140;SDS011;27809;51.864;5.646;2023-03-13T05:21:05;5.30;;;2.20;;
42140;SDS011;27809;51.864;5.646;2023-03-13T05:23:31;5.72;;;2.72;;
42140;SDS011;27809;51.864;5.646;2023-03-13T05:25:56;5.93;;;3.28;;
42140;SDS011;27809;51.864;5.646;2023-03-13T05:28:22;5.68;;;1.70;;
42140;SDS011;27809;51.864;5.646;2023-03-13T05:30:48;2.83;;;1.90;;
42140;SDS011;27809;51.864;5.646;2023-03-13T05:33:13;12.05;;;2.63;;
42140;SDS011;27809;51.864;5.646;2023-03-13T05:35:39;15.25;;;4.10;;
42140;SDS011;27809;51.864;5.646;2023-03-13T05:38:05;4.85;;;1.85;;
42140;SDS011;27809;51.864;5.646;2023-03-13T05:40:30;7.25;;;2.00;;
42140;SDS011;27809;51.864;5.646;2023-03-13T05:42:56;3.60;;;1.55;;
42140;SDS011;27809;51.864;5.646;2023-03-13T05:45:21;6.05;;;2.42;;
42140;SDS011;27809;51.864;5.646;2023-03-13T05:47:47;5.50;;;2.00;;
42140;SDS011;27809;51.864;5.646;2023-03-13T05:50:12;9.77;;;2.55;;
42140;SDS011;27809;51.864;5.646;2023-03-13T05:52:38;6.72;;;1.67;;
42140;SDS011;27809;51.864;5.646;2023-03-13T05:55:04;6.13;;;2.67;;
42140;SDS011;27809;51.864;5.646;2023-03-13T05:57:29;5.82;;;1.88;;
42140;SDS011;27809;51.864;5.646;2023-03-13T05:59:55;3.75;;;1.92;;
42140;SDS011;27809;51.864;5.646;2023-03-13T06:02:20;5.75;;;1.77;;
42140;SDS011;27809;51.864;5.646;2023-03-13T06:04:46;3.75;;;2.33;;
42140;SDS011;27809;51.864;5.646;2023-03-13T06:07:12;3.63;;;1.50;;
42140;SDS011;27809;51.864;5.646;2023-03-13T06:09:37;4.93;;;1.30;;
42140;SDS011;27809;51.864;5.646;2023-03-13T06:12:05;3.13;;;1.80;;
42140;SDS011;27809;51.864;5.646;2023-03-13T06:14:31;4.10;;;0.80;;
42140;SDS011;27809;51.864;5.646;2023-03-13T06:16:56;3.78;;;1.17;;
42140;SDS011;27809;51.864;5.646;2023-03-13T06:19:22;4.90;;;1.58;;
42140;SDS011;27809;51.864;5.646;2023-03-13T06:21:48;4.05;;;1.70;;
42140;SDS011;27809;51.864;5.646;2023-03-13T06:24:14;7.93;;;2.22;;
42140;SDS011;27809;51.864;5.646;2023-03-13T06:26:40;6.93;;;1.55;;
42140;SDS011;27809;51.864;5.646;2023-03-13T06:29:06;12.02;;;2.20;;
42140;SDS011;27809;51.864;5.646;2023-03-13T06:31:31;10.35;;;1.60;;
42140;SDS011;27809;51.864;5.646;2023-03-13T06:33:57;8.52;;;1.55;;
42140;SDS011;27809;51.864;5.646;2023-03-13T06:36:23;8.00;;;2.47;;
42140;SDS011;27809;51.864;5.646;2023-03-13T06:38:49;5.32;;;1.25;;
42140;SDS011;27809;51.864;5.646;2023-03-13T06:41:14;7.45;;;1.17;;
42140;SDS011;27809;51.864;5.646;2023-03-13T06:43:40;7.18;;;1.42;;
42140;SDS011;27809;51.864;5.646;2023-03-13T06:46:06;4.93;;;1.20;;
42140;SDS011;27809;51.864;5.646;2023-03-13T06:48:34;8.40;;;2.10;;
42140;SDS011;27809;51.864;5.646;2023-03-13T06:51:00;9.93;;;2.63;;
42140;SDS011;27809;51.864;5.646;2023-03-13T06:53:25;6.97;;;2.38;;
42140;SDS011;27809;51.864;5.646;2023-03-13T06:55:51;7.75;;;1.73;;
42140;SDS011;27809;51.864;5.646;2023-03-13T06:58:17;4.60;;;1.67;;
42140;SDS011;27809;51.864;5.646;2023-03-13T07:00:42;4.75;;;1.20;;
42140;SDS011;27809;51.864;5.646;2023-03-13T07:03:09;7.93;;;1.80;;
42140;SDS011;27809;51.864;5.646;2023-03-13T07:05:35;4.00;;;1.75;;
42140;SDS011;27809;51.864;5.646;2023-03-13T07:08:01;25.00;;;1.90;;
42140;SDS011;27809;51.864;5.646;2023-03-13T07:10:27;6.13;;;1.40;;
42140;SDS011;27809;51.864;5.646;2023-03-13T07:12:53;3.17;;;1.55;;
42140;SDS011;27809;51.864;5.646;2023-03-13T07:15:18;13.30;;;2.25;;
42140;SDS011;27809;51.864;5.646;2023-03-13T07:17:44;3.17;;;1.08;;
42140;SDS011;27809;51.864;5.646;2023-03-13T07:20:09;7.45;;;1.15;;
42140;SDS011;27809;51.864;5.646;2023-03-13T07:22:36;7.00;;;1.45;;
42140;SDS011;27809;51.864;5.646;2023-03-13T07:25:02;5.50;;;0.75;;
42140;SDS011;27809;51.864;5.646;2023-03-13T07:27:29;9.95;;;1.67;;
42140;SDS011;27809;51.864;5.646;2023-03-13T07:29:54;9.68;;;1.90;;
42140;SDS011;27809;51.864;5.646;2023-03-13T07:32:20;9.85;;;1.52;;
42140;SDS011;27809;51.864;5.646;2023-03-13T07:34:46;6.65;;;1.67;;
42140;SDS011;27809;51.864;5.646;2023-03-13T07:37:11;2.55;;;0.90;;
42140;SDS011;27809;51.864;5.646;2023-03-13T07:39:38;3.63;;;0.80;;
42140;SDS011;27809;51.864;5.646;2023-03-13T07:42:03;12.48;;;1.17;;
42140;SDS011;27809;51.864;5.646;2023-03-13T07:44:29;2.67;;;0.60;;
42140;SDS011;27809;51.864;5.646;2023-03-13T07:46:57;5.95;;;0.88;;
42140;SDS011;27809;51.864;5.646;2023-03-13T07:49:23;3.97;;;1.02;;
42140;SDS011;27809;51.864;5.646;2023-03-13T07:51:49;8.70;;;1.67;;
42140;SDS011;27809;51.864;5.646;2023-03-13T07:54:15;3.70;;;0.82;;
42140;SDS011;27809;51.864;5.646;2023-03-13T07:56:40;4.63;;;1.35;;
42140;SDS011;27809;51.864;5.646;2023-03-13T07:59:06;5.07;;;0.90;;
42140;SDS011;27809;51.864;5.646;2023-03-13T08:01:32;9.18;;;1.58;;
42140;SDS011;27809;51.864;5.646;2023-03-13T08:03:58;6.20;;;1.33;;
42140;SDS011;27809;51.864;5.646;2023-03-13T08:06:26;7.10;;;0.65;;
42140;SDS011;27809;51.864;5.646;2023-03-13T08:08:57;5.75;;;1.33;;
42140;SDS011;27809;51.864;5.646;2023-03-13T08:11:24;4.25;;;0.98;;
42140;SDS011;27809;51.864;5.646;2023-03-13T08:13:52;7.75;;;1.33;;
42140;SDS011;27809;51.864;5.646;2023-03-13T08:16:19;4.72;;;1.35;;
42140;SDS011;27809;51.864;5.646;2023-03-13T08:18:50;6.38;;;1.35;;
42140;SDS011;27809;51.864;5.646;2023-03-13T08:21:19;25.20;;;1.27;;
42140;SDS011;27809;51.864;5.646;2023-03-13T08:24:04;4.15;;;0.70;;
42140;SDS011;27809;51.864;5.646;2023-03-13T08:26:31;3.25;;;1.02;;
42140;SDS011;27809;51.864;5.646;2023-03-13T08:29:01;2.97;;;1.00;;
42140;SDS011;27809;51.864;5.646;2023-03-13T08:31:29;5.05;;;0.90;;
42140;SDS011;27809;51.864;5.646;2023-03-13T08:33:56;14.48;;;1.85;;
42140;SDS011;27809;51.864;5.646;2023-03-13T08:36:29;5.10;;;0.85;;
42140;SDS011;27809;51.864;5.646;2023-03-13T08:38:58;4.82;;;0.77;;
42140;SDS011;27809;51.864;5.646;2023-03-13T08:41:26;11.55;;;1.40;;
42140;SDS011;27809;51.864;5.646;2023-03-13T08:43:53;9.77;;;2.58;;
42140;SDS011;27809;51.864;5.646;2023-03-13T08:46:19;7.60;;;2.05;;
42140;SDS011;27809;51.864;5.646;2023-03-13T08:48:51;6.18;;;0.95;;
42140;SDS011;27809;51.864;5.646;2023-03-13T08:53:44;13.32;;;1.67;;
42140;SDS011;27809;51.864;5.646;2023-03-13T08:56:11;7.05;;;1.63;;
42140;SDS011;27809;51.864;5.646;2023-03-13T08:58:38;5.88;;;1.40;;
42140;SDS011;27809;51.864;5.646;2023-03-13T09:01:06;3.17;;;0.68;;
42140;SDS011;27809;51.864;5.646;2023-03-13T09:03:39;2.63;;;1.08;;
42140;SDS011;27809;51.864;5.646;2023-03-13T09:06:06;2.53;;;0.68;;
42140;SDS011;27809;51.864;5.646;2023-03-13T09:08:33;2.10;;;0.73;;
42140;SDS011;27809;51.864;5.646;2023-03-13T09:11:09;7.13;;;1.52;;
42140;SDS011;27809;51.864;5.646;2023-03-13T09:13:37;3.70;;;0.80;;
42140;SDS011;27809;51.864;5.646;2023-03-13T09:16:08;3.00;;;0.47;;
42140;SDS011;27809;51.864;5.646;2023-03-13T09:18:39;5.15;;;0.90;;
42140;SDS011;27809;51.864;5.646;2023-03-13T09:21:06;1.23;;;0.57;;
42140;SDS011;27809;51.864;5.646;2023-03-13T09:23:42;1.15;;;0.68;;
42140;SDS011;27809;51.864;5.646;2023-03-13T09:26:07;6.55;;;0.73;;
42140;SDS011;27809;51.864;5.646;2023-03-13T09:28:34;3.83;;;0.70;;
42140;SDS011;27809;51.864;5.646;2023-03-13T09:31:06;8.20;;;0.50;;
42140;SDS011;27809;51.864;5.646;2023-03-13T09:33:40;9.30;;;1.95;;
42140;SDS011;27809;51.864;5.646;2023-03-13T09:36:07;2.85;;;0.88;;
42140;SDS011;27809;51.864;5.646;2023-03-13T09:38:33;2.92;;;1.15;;
42140;SDS011;27809;51.864;5.646;2023-03-13T09:41:03;4.47;;;0.40;;
42140;SDS011;27809;51.864;5.646;2023-03-13T09:44:01;3.72;;;0.80;;
42140;SDS011;27809;51.864;5.646;2023-03-13T09:46:38;8.80;;;0.65;;
42140;SDS011;27809;51.864;5.646;2023-03-13T09:49:50;2.22;;;0.70;;
42140;SDS011;27809;51.864;5.646;2023-03-13T09:52:01;4.18;;;0.70;;
42140;SDS011;27809;51.864;5.646;2023-03-13T09:54:42;3.40;;;0.75;;
42140;SDS011;27809;51.864;5.646;2023-03-13T09:57:26;12.90;;;0.88;;
42140;SDS011;27809;51.864;5.646;2023-03-13T10:00:06;4.00;;;0.60;;
42140;SDS011;27809;51.864;5.646;2023-03-13T10:02:38;3.35;;;1.23;;
42140;SDS011;27809;51.864;5.646;2023-03-13T10:05:09;0.95;;;0.57;;
42140;SDS011;27809;51.864;5.646;2023-03-13T10:07:43;1.23;;;0.30;;
42140;SDS011;27809;51.864;5.646;2023-03-13T10:10:13;5.50;;;0.68;;
42140;SDS011;27809;51.864;5.646;2023-03-13T10:12:46;0.80;;;0.30;;
42140;SDS011;27809;51.864;5.646;2023-03-13T10:18:21;12.98;;;1.08;;
42140;SDS011;27809;51.864;5.646;2023-03-13T10:20:49;4.15;;;0.75;;
42140;SDS011;27809;51.864;5.646;2023-03-13T10:25:45;5.78;;;0.90;;
42140;SDS011;27809;51.864;5.646;2023-03-13T10:28:11;2.88;;;0.63;;
42140;SDS011;27809;51.864;5.646;2023-03-13T10:30:40;2.80;;;0.80;;
42140;SDS011;27809;51.864;5.646;2023-03-13T10:35:40;1.65;;;0.73;;
42140;SDS011;27809;51.864;5.646;2023-03-13T10:38:13;3.70;;;1.02;;
42140;SDS011;27809;51.864;5.646;2023-03-13T10:40:42;4.47;;;1.05;;
42140;SDS011;27809;51.864;5.646;2023-03-13T10:45:43;3.95;;;0.90;;
42140;SDS011;27809;51.864;5.646;2023-03-13T10:48:13;4.97;;;0.85;;
42140;SDS011;27809;51.864;5.646;2023-03-13T10:50:43;4.18;;;0.80;;
42140;SDS011;27809;51.864;5.646;2023-03-13T10:53:19;1.45;;;0.60;;
42140;SDS011;27809;51.864;5.646;2023-03-13T10:55:48;1.55;;;0.40;;
42140;SDS011;27809;51.864;5.646;2023-03-13T10:58:18;2.17;;;0.43;;
42140;SDS011;27809;51.864;5.646;2023-03-13T11:00:47;4.07;;;0.73;;
42140;SDS011;27809;51.864;5.646;2023-03-13T11:03:31;1.75;;;0.40;;
42140;SDS011;27809;51.864;5.646;2023-03-13T11:06:00;2.70;;;0.50;;
42140;SDS011;27809;51.864;5.646;2023-03-13T11:08:28;4.88;;;1.00;;
42140;SDS011;27809;51.864;5.646;2023-03-13T11:13:47;0.43;;;0.30;;
42140;SDS011;27809;51.864;5.646;2023-03-13T11:19:07;2.40;;;0.55;;
42140;SDS011;27809;51.864;5.646;2023-03-13T11:24:35;3.05;;;1.10;;
42140;SDS011;27809;51.864;5.646;2023-03-13T11:27:18;2.10;;;0.10;;
42140;SDS011;27809;51.864;5.646;2023-03-13T11:29:57;2.72;;;0.40;;
42140;SDS011;27809;51.864;5.646;2023-03-13T11:35:59;5.70;;;0.40;;
42140;SDS011;27809;51.864;5.646;2023-03-13T11:38:47;2.42;;;0.40;;
42140;SDS011;27809;51.864;5.646;2023-03-13T11:41:27;1.38;;;0.50;;
42140;SDS011;27809;51.864;5.646;2023-03-13T11:51:35;0.80;;;0.20;;
42140;SDS011;27809;51.864;5.646;2023-03-13T12:00:00;2.88;;;1.13;;
42140;SDS011;27809;51.864;5.646;2023-03-13T12:02:45;2.70;;;0.73;;
42140;SDS011;27809;51.864;5.646;2023-03-13T12:05:21;1.92;;;0.20;;
42140;SDS011;27809;51.864;5.646;2023-03-13T12:08:04;1.20;;;0.60;;
42140;SDS011;27809;51.864;5.646;2023-03-13T12:10:37;3.22;;;0.90;;
42140;SDS011;27809;51.864;5.646;2023-03-13T12:13:11;1.33;;;0.30;;
42140;SDS011;27809;51.864;5.646;2023-03-13T12:15:48;2.00;;;0.82;;
42140;SDS011;27809;51.864;5.646;2023-03-13T12:18:19;1.48;;;0.30;;
42140;SDS011;27809;51.864;5.646;2023-03-13T12:26:11;5.20;;;0.20;;
42140;SDS011;27809;51.864;5.646;2023-03-13T12:28:56;3.28;;;0.43;;
42140;SDS011;27809;51.864;5.646;2023-03-13T12:31:35;0.77;;;0.52;;
42140;SDS011;27809;51.864;5.646;2023-03-13T12:34:20;3.42;;;0.35;;
42140;SDS011;27809;51.864;5.646;2023-03-13T12:39:21;0.60;;;0.20;;
42140;SDS011;27809;51.864;5.646;2023-03-13T12:44:33;1.45;;;0.22;;
42140;SDS011;27809;51.864;5.646;2023-03-13T12:52:42;1.42;;;0.20;;
42140;SDS011;27809;51.864;5.646;2023-03-13T12:55:48;2.97;;;0.30;;
42140;SDS011;27809;51.864;5.646;2023-03-13T13:01:02;0.98;;;0.22;;
42140;SDS011;27809;51.864;5.646;2023-03-13T13:03:33;1.63;;;0.28;;
42140;SDS011;27809;51.864;5.646;2023-03-13T13:06:13;3.53;;;0.30;;
42140;SDS011;27809;51.864;5.646;2023-03-13T13:08:41;1.27;;;0.28;;
42140;SDS011;27809;51.864;5.646;2023-03-13T13:14:02;2.90;;;0.68;;
42140;SDS011;27809;51.864;5.646;2023-03-13T13:16:30;1.10;;;0.30;;
42140;SDS011;27809;51.864;5.646;2023-03-13T13:19:10;1.27;;;0.20;;
42140;SDS011;27809;51.864;5.646;2023-03-13T13:25:00;2.55;;;0.28;;
42140;SDS011;27809;51.864;5.646;2023-03-13T13:32:51;1.95;;;0.40;;
42140;SDS011;27809;51.864;5.646;2023-03-13T13:35:22;4.20;;;0.15;;
42140;SDS011;27809;51.864;5.646;2023-03-13T13:41:02;0.73;;;0.20;;
42140;SDS011;27809;51.864;5.646;2023-03-13T13:43:38;2.22;;;0.40;;
42140;SDS011;27809;51.864;5.646;2023-03-13T13:46:25;1.17;;;0.20;;
42140;SDS011;27809;51.864;5.646;2023-03-13T13:51:29;1.40;;;0.30;;
42140;SDS011;27809;51.864;5.646;2023-03-13T14:01:39;4.28;;;0.63;;
42140;SDS011;27809;51.864;5.646;2023-03-13T14:04:16;1.33;;;0.68;;
42140;SDS011;27809;51.864;5.646;2023-03-13T14:06:51;1.42;;;0.20;;
42140;SDS011;27809;51.864;5.646;2023-03-13T14:20:50;6.20;;;0.80;;
42140;SDS011;27809;51.864;5.646;2023-03-13T14:23:27;2.95;;;0.30;;
42140;SDS011;27809;51.864;5.646;2023-03-13T14:25:55;10.57;;;0.65;;
42140;SDS011;27809;51.864;5.646;2023-03-13T14:28:22;4.93;;;0.90;;
42140;SDS011;27809;51.864;5.646;2023-03-13T14:30:50;1.35;;;0.30;;
42140;SDS011;27809;51.864;5.646;2023-03-13T14:33:17;1.58;;;0.20;;
42140;SDS011;27809;51.864;5.646;2023-03-13T14:35:43;3.42;;;1.38;;
42140;SDS011;27809;51.864;5.646;2023-03-13T14:38:16;4.15;;;0.47;;
42140;SDS011;27809;51.864;5.646;2023-03-13T14:40:47;1.38;;;0.40;;
42140;SDS011;27809;51.864;5.646;2023-03-13T14:43:16;6.00;;;0.35;;
42140;SDS011;27809;51.864;5.646;2023-03-13T14:45:50;3.25;;;1.10;;
42140;SDS011;27809;51.864;5.646;2023-03-13T14:50:44;0.82;;;0.30;;
42140;SDS011;27809;51.864;5.646;2023-03-13T14:53:11;3.35;;;0.30;;
42140;SDS011;27809;51.864;5.646;2023-03-13T14:55:40;3.35;;;0.93;;
42140;SDS011;27809;51.864;5.646;2023-03-13T15:00:44;4.90;;;1.08;;
42140;SDS011;27809;51.864;5.646;2023-03-13T15:05:40;6.45;;;0.85;;
42140;SDS011;27809;51.864;5.646;2023-03-13T15:08:21;4.57;;;0.82;;
42140;SDS011;27809;51.864;5.646;2023-03-13T15:10:47;6.63;;;1.35;;
42140;SDS011;27809;51.864;5.646;2023-03-13T15:15:58;2.35;;;0.28;;
42140;SDS011;27809;51.864;5.646;2023-03-13T15:18:29;3.10;;;0.93;;
42140;SDS011;27809;51.864;5.646;2023-03-13T15:20:56;2.83;;;0.80;;
42140;SDS011;27809;51.864;5.646;2023-03-13T15:23:41;5.65;;;0.80;;
42140;SDS011;27809;51.864;5.646;2023-03-13T15:26:14;6.57;;;0.40;;
42140;SDS011;27809;51.864;5.646;2023-03-13T15:28:39;4.45;;;0.40;;
42140;SDS011;27809;51.864;5.646;2023-03-13T15:31:05;2.72;;;0.98;;
42140;SDS011;27809;51.864;5.646;2023-03-13T15:33:31;4.43;;;0.77;;
42140;SDS011;27809;51.864;5.646;2023-03-13T15:35:56;2.55;;;0.93;;
42140;SDS011;27809;51.864;5.646;2023-03-13T15:38:23;5.07;;;0.70;;
42140;SDS011;27809;51.864;5.646;2023-03-13T15:40:50;5.88;;;0.85;;
42140;SDS011;27809;51.864;5.646;2023-03-13T15:43:17;7.70;;;0.85;;
42140;SDS011;27809;51.864;5.646;2023-03-13T15:45:44;5.05;;;0.88;;
42140;SDS011;27809;51.864;5.646;2023-03-13T15:48:19;2.90;;;0.40;;
42140;SDS011;27809;51.864;5.646;2023-03-13T15:50:53;4.63;;;0.77;;
42140;SDS011;27809;51.864;5.646;2023-03-13T15:53:24;5.53;;;1.23;;
42140;SDS011;27809;51.864;5.646;2023-03-13T15:55:56;3.28;;;0.70;;
42140;SDS011;27809;51.864;5.646;2023-03-13T15:58:24;7.88;;;0.63;;
42140;SDS011;27809;51.864;5.646;2023-03-13T16:00:50;1.90;;;0.38;;
42140;SDS011;27809;51.864;5.646;2023-03-13T16:03:23;8.02;;;0.73;;
42140;SDS011;27809;51.864;5.646;2023-03-13T16:05:51;13.65;;;1.42;;
42140;SDS011;27809;51.864;5.646;2023-03-13T16:08:25;6.82;;;0.68;;
42140;SDS011;27809;51.864;5.646;2023-03-13T16:10:52;9.90;;;1.15;;
42140;SDS011;27809;51.864;5.646;2023-03-13T16:13:18;3.17;;;0.77;;
42140;SDS011;27809;51.864;5.646;2023-03-13T16:15:44;5.43;;;1.10;;
42140;SDS011;27809;51.864;5.646;2023-03-13T16:18:21;14.57;;;1.27;;
42140;SDS011;27809;51.864;5.646;2023-03-13T16:20:47;6.47;;;1.00;;
42140;SDS011;27809;51.864;5.646;2023-03-13T16:23:13;5.10;;;0.90;;
42140;SDS011;27809;51.864;5.646;2023-03-13T16:25:40;6.20;;;0.80;;
42140;SDS011;27809;51.864;5.646;2023-03-13T16:28:09;13.18;;;1.80;;
42140;SDS011;27809;51.864;5.646;2023-03-13T16:30:36;6.88;;;1.98;;
42140;SDS011;27809;51.864;5.646;2023-03-13T16:33:04;11.15;;;2.28;;
42140;SDS011;27809;51.864;5.646;2023-03-13T16:35:30;6.25;;;2.13;;
42140;SDS011;27809;51.864;5.646;2023-03-13T16:37:56;13.85;;;2.75;;
42140;SDS011;27809;51.864;5.646;2023-03-13T16:40:23;9.15;;;1.50;;
42140;SDS011;27809;51.864;5.646;2023-03-13T16:42:50;9.13;;;1.42;;
42140;SDS011;27809;51.864;5.646;2023-03-13T16:45:15;9.30;;;2.75;;
42140;SDS011;27809;51.864;5.646;2023-03-13T16:47:44;11.70;;;1.30;;